Time;durP1;ratioP1;P1;durP2;ratioP2;P2;SDS_P1;SDS_P2;PMS_P1;PMS_P2;Temp;Humidity;BMP_temperature;BMP_pressure;BME280_temperature;BME280_humidity;BME280_pressure;Samples;Min_cycle;Max_cycle;Signal;HPM_P1;HPM_P2
2022/11/21 00:04:56;;;;;;;;;;;0.30;99.90;;;;;;12582061;28;19948;-85
2022/11/21 00:10:58;;;;;;;;;;;0.30;99.90;;;;;;12556276;28;20409;-85
2022/11/21 00:17:00;;;;;;;;;;;0.30;99.90;;;;;;12559849;28;19925;-85
2022/11/21 00:23:02;;;;;;;;;;;0.30;99.90;;;;;;12568447;28;19925;-85
2022/11/21 00:29:04;;;;;;;;;;;0.30;99.90;;;;;;12549801;28;19940;-85
2022/11/21 00:35:06;;;;;;;;;;;0.40;99.90;;;;;;12544909;28;19924;-85
2022/11/21 00:41:07;;;;;;;;;;;0.30;99.90;;;;;;12551529;28;19924;-85
2022/11/21 00:47:09;;;;;;;;;;;0.30;99.90;;;;;;12535543;28;19931;-85
2022/11/21 00:53:11;;;;;;;;;;;0.30;99.90;;;;;;12552362;28;19928;-85
2022/11/21 00:59:12;;;;;;;;;;;0.30;99.90;;;;;;12534842;28;20004;-85
2022/11/21 01:05:14;;;;;;;;;;;0.30;99.90;;;;;;12559849;28;19929;-85
2022/11/21 01:11:17;;;;;;;;;;;0.30;99.90;;;;;;12577565;28;19932;-85
2022/11/21 01:17:19;;;;;;;;;;;0.20;99.90;;;;;;12584370;28;19931;-85
2022/11/21 01:23:20;;;;;;;;;;;0.20;99.90;;;;;;12595599;28;19931;-85
2022/11/21 01:29:22;;;;;;;;;;;0.20;99.90;;;;;;12582765;28;19928;-85
2022/11/21 01:35:24;;;;;;;;;;;0.10;99.90;;;;;;12562973;28;19929;-85
2022/11/21 01:41:32;;;;;;;;;;;0.10;99.90;;;;;;12572913;28;20395;-85
2022/11/21 01:47:34;;;;;;;;;;;0.30;99.90;;;;;;12572723;28;19932;-85
2022/11/21 01:53:36;;;;;;;;;;;0.30;99.90;;;;;;12582289;28;19925;-85
2022/11/21 01:59:40;;;;;;;;;;;0.30;99.90;;;;;;12588574;28;19925;-85
2022/11/21 02:05:42;;;;;;;;;;;0.30;99.90;;;;;;12564011;28;19924;-85
2022/11/21 02:11:48;;;;;;;;;;;0.30;99.90;;;;;;12550901;28;19941;-85
2022/11/21 02:17:49;;;;;;;;;;;0.30;99.90;;;;;;12553113;28;19966;-85
2022/11/21 02:23:59;;;;;;;;;;;0.30;99.90;;;;;;12545387;28;20380;-85
2022/11/21 02:30:03;;;;;;;;;;;0.30;99.90;;;;;;12563295;28;19935;-84
2022/11/21 02:36:25;;;;;;;;;;;0.30;99.90;;;;;;12558027;28;19939;-85
2022/11/21 02:42:32;;;;;;;;;;;0.20;99.90;;;;;;12582029;28;19951;-85
2022/11/21 02:48:35;;;;;;;;;;;0.10;99.90;;;;;;12544532;28;20323;-85
2022/11/21 02:54:36;;;;;;;;;;;0.20;99.90;;;;;;12563090;28;20402;-84
2022/11/21 03:00:39;;;;;;;;;;;0.20;99.90;;;;;;12550429;28;19929;-85
2022/11/21 03:06:41;;;;;;;;;;;0.00;99.90;;;;;;12578235;28;20589;-85
2022/11/21 03:12:42;;;;;;;;;;;-0.10;99.90;;;;;;12612730;28;20374;-85
2022/11/21 03:18:44;;;;;;;;;;;-0.20;99.90;;;;;;12588333;28;20337;-85
2022/11/21 03:24:46;;;;;;;;;;;-0.30;99.90;;;;;;12613842;28;19924;-84
2022/11/21 03:30:47;;;;;;;;;;;-0.40;99.90;;;;;;12605046;28;19951;-85
2022/11/21 03:36:49;;;;;;;;;;;-0.40;99.90;;;;;;12596279;28;19983;-85
2022/11/21 03:42:51;;;;;;;;;;;-0.40;99.90;;;;;;12606730;28;19936;-85
2022/11/21 03:48:52;;;;;;;;;;;-0.30;99.90;;;;;;12600701;28;19925;-85
2022/11/21 03:54:54;;;;;;;;;;;-0.30;99.90;;;;;;12602620;28;19929;-85
2022/11/21 04:00:56;;;;;;;;;;;-0.30;99.90;;;;;;12579323;28;19936;-85
2022/11/21 04:06:57;;;;;;;;;;;-0.30;99.90;;;;;;12585978;28;19981;-85
2022/11/21 04:12:59;;;;;;;;;;;-0.40;99.90;;;;;;12566253;28;19931;-85
2022/11/21 04:19:01;;;;;;;;;;;-0.40;99.90;;;;;;12581116;28;19963;-85
2022/11/21 04:25:03;;;;;;;;;;;-0.40;99.90;;;;;;12561950;28;19929;-85
2022/11/21 04:31:05;;;;;;;;;;;-0.40;99.90;;;;;;12557666;28;19932;-85
2022/11/21 04:37:11;;;;;;;;;;;-0.70;99.90;;;;;;12558080;28;19925;-85
2022/11/21 04:43:13;;;;;;;;;;;-0.80;99.90;;;;;;12573305;28;20063;-86
2022/11/21 04:49:15;;;;;;;;;;;-0.90;99.90;;;;;;12563075;28;19928;-85
2022/11/21 04:55:17;;;;;;;;;;;-1.00;99.90;;;;;;12555690;28;19931;-86
2022/11/21 05:01:19;;;;;;;;;;;-1.10;99.90;;;;;;12552188;28;19931;-85
2022/11/21 05:07:20;;;;;;;;;;;-1.10;99.90;;;;;;12553046;28;19929;-85
2022/11/21 05:13:23;;;;;;;;;;;-1.00;99.90;;;;;;12580167;28;19990;-85
2022/11/21 05:19:24;;;;;;;;;;;-1.10;99.90;;;;;;12578248;28;19940;-85
2022/11/21 05:25:26;;;;;;;;;;;-1.20;99.90;;;;;;12581893;28;19933;-85
2022/11/21 05:31:27;;;;;;;;;;;-1.40;99.90;;;;;;12572183;28;19936;-85
2022/11/21 05:37:29;;;;;;;;;;;-1.40;99.90;;;;;;12570706;28;19924;-85
2022/11/21 05:43:46;;;;;;;;;;;-1.60;99.90;;;;;;12580371;28;19924;-85
2022/11/21 05:49:47;;;;;;;;;;;-1.70;99.90;;;;;;12590397;28;19928;-85
2022/11/21 05:55:49;;;;;;;;;;;-1.70;99.90;;;;;;12559123;28;19933;-85
2022/11/21 06:08:11;;;;;;;;;;;-1.70;99.90;;;;;;12570300;28;19940;-85
2022/11/21 06:14:13;;;;;;;;;;;-1.70;99.90;;;;;;12572702;28;19924;-85
2022/11/21 06:20:14;;;;;;;;;;;-1.80;99.90;;;;;;12574287;28;20376;-85
2022/11/21 06:26:17;;;;;;;;;;;-1.90;99.90;;;;;;12547545;28;20276;-85
2022/11/21 06:32:19;;;;;;;;;;;-2.10;99.90;;;;;;12556734;28;19947;-85
2022/11/21 06:38:21;;;;;;;;;;;-2.10;99.90;;;;;;12553060;28;20611;-85
2022/11/21 06:44:22;;;;;;;;;;;-2.10;99.90;;;;;;12535521;28;19924;-85
2022/11/21 06:50:24;;;;;;;;;;;-1.80;99.90;;;;;;12559053;28;19924;-86
2022/11/21 06:56:27;;;;;;;;;;;-1.90;99.90;;;;;;12545141;28;19932;-86
2022/11/21 07:02:29;;;;;;;;;;;-2.10;99.90;;;;;;12554581;28;19959;-86
2022/11/21 07:08:32;;;;;;;;;;;-2.30;99.90;;;;;;12577981;28;19951;-86
2022/11/21 07:14:33;;;;;;;;;;;-2.30;99.90;;;;;;12587684;28;19924;-86
2022/11/21 07:20:35;;;;;;;;;;;-2.30;99.90;;;;;;12581478;28;19936;-86
2022/11/21 07:26:37;;;;;;;;;;;-2.00;99.90;;;;;;12549828;28;19935;-86
2022/11/21 07:32:38;;;;;;;;;;;-2.30;99.90;;;;;;12570577;28;19924;-86
2022/11/21 07:38:40;;;;;;;;;;;-2.30;99.90;;;;;;12607852;28;19925;-86
2022/11/21 07:44:42;;;;;;;;;;;-2.10;99.90;;;;;;12568452;28;19936;-85
2022/11/21 07:50:44;;;;;;;;;;;-2.00;99.90;;;;;;12559669;28;19924;-86
2022/11/21 07:56:46;;;;;;;;;;;-1.70;99.90;;;;;;12568627;28;19928;-86
2022/11/21 08:02:47;;;;;;;;;;;-1.40;99.90;;;;;;12557774;28;19936;-86
2022/11/21 08:08:53;;;;;;;;;;;-1.20;99.90;;;;;;12562933;28;19935;-86
2022/11/21 08:14:55;;;;;;;;;;;-0.60;99.90;;;;;;12581663;28;19940;-86
2022/11/21 08:20:59;;;;;;;;;;;-0.40;99.90;;;;;;12571461;28;19932;-86
2022/11/21 08:27:00;;;;;;;;;;;-0.20;99.90;;;;;;12568530;28;19936;-86
2022/11/21 08:33:02;;;;;;;;;;;0.00;99.90;;;;;;12542793;28;19924;-86
2022/11/21 08:39:04;;;;;;;;;;;0.10;99.90;;;;;;12561964;28;19924;-86
2022/11/21 08:45:08;;;;;;;;;;;0.30;99.90;;;;;;12556531;28;21513;-86
2022/11/21 08:51:09;;;;;;;;;;;0.30;99.90;;;;;;12550575;28;19929;-86
2022/11/21 08:57:11;;;;;;;;;;;0.30;99.90;;;;;;12559065;28;19931;-86
2022/11/21 09:03:13;;;;;;;;;;;0.30;99.90;;;;;;12557391;28;20398;-86
2022/11/21 09:09:22;;;;;;;;;;;0.20;99.90;;;;;;12593225;28;20014;-86
2022/11/21 09:21:50;;;;;;;;;;;0.40;99.90;;;;;;12595656;28;19924;-86
2022/11/21 09:27:52;;;;;;;;;;;0.40;99.90;;;;;;12567863;28;19924;-87
2022/11/21 09:33:53;;;;;;;;;;;0.30;99.90;;;;;;12578839;28;19928;-86
2022/11/21 09:39:56;;;;;;;;;;;0.50;99.90;;;;;;12584880;28;19955;-87
2022/11/21 09:46:18;;;;;;;;;;;0.50;99.90;;;;;;12567701;28;19928;-87
2022/11/21 09:52:21;;;;;;;;;;;0.50;99.90;;;;;;12578136;28;19925;-87
2022/11/21 09:58:27;;;;;;;;;;;0.70;99.90;;;;;;12562510;28;19928;-87
2022/11/21 10:04:29;;;;;;;;;;;0.90;99.90;;;;;;12571277;28;19925;-86
2022/11/21 10:10:50;;;;;;;;;;;1.10;99.90;;;;;;12576156;28;19933;-87
2022/11/21 10:17:05;;;;;;;;;;;1.40;99.90;;;;;;12564197;28;19959;-86
2022/11/21 10:23:39;;;;;;;;;;;1.90;99.90;;;;;;12569539;28;19924;-87
2022/11/21 10:29:44;;;;;;;;;;;1.60;99.90;;;;;;12508228;28;20292;-87
2022/11/21 10:35:50;;;;;;;;;;;1.40;99.90;;;;;;12567557;28;19928;-87
2022/11/21 10:41:56;;;;;;;;;;;1.60;99.90;;;;;;12607622;28;19992;-86
2022/11/21 10:47:58;;;;;;;;;;;1.80;99.90;;;;;;12612675;28;20034;-86
2022/11/21 11:00:28;;;;;;;;;;;1.80;99.90;;;;;;12619698;28;19924;-87
2022/11/21 11:06:29;;;;;;;;;;;2.00;99.90;;;;;;12587822;28;19951;-86
2022/11/21 11:19:14;;;;;;;;;;;2.70;99.90;;;;;;12587851;28;20382;-86
2022/11/21 11:25:16;;;;;;;;;;;3.10;99.90;;;;;;12593835;28;19936;-86
2022/11/21 11:31:17;;;;;;;;;;;3.20;99.90;;;;;;12587711;28;19936;-85
2022/11/21 11:37:24;;;;;;;;;;;3.30;99.90;;;;;;12565624;28;19925;-86
2022/11/21 11:50:12;;;;;;;;;;;3.40;99.90;;;;;;12569841;28;20343;-86
2022/11/21 11:56:22;;;;;;;;;;;3.80;99.90;;;;;;12563393;28;19939;-86
2022/11/21 12:02:28;;;;;;;;;;;3.40;99.90;;;;;;12592253;28;19947;-86
2022/11/21 12:08:34;;;;;;;;;;;3.80;99.90;;;;;;12584698;28;19932;-85
2022/11/21 12:21:23;;;;;;;;;;;4.30;99.90;;;;;;12577249;28;20311;-85
2022/11/21 12:27:30;;;;;;;;;;;4.40;99.90;;;;;;12540033;28;19936;-86
2022/11/21 12:33:35;;;;;;;;;;;4.10;99.90;;;;;;12593118;28;20296;-86
2022/11/21 12:39:52;;;;;;;;;;;4.00;99.90;;;;;;12584217;28;19935;-85
2022/11/21 12:46:12;;;;;;;;;;;4.20;99.90;;;;;;12581547;28;19977;-86
2022/11/21 12:58:56;;;;;;;;;;;4.50;99.90;;;;;;12570803;28;19925;-85
2022/11/21 13:04:58;;;;;;;;;;;4.40;99.90;;;;;;12571486;28;19937;-85
2022/11/21 13:17:33;;;;;;;;;;;3.80;99.90;;;;;;12567907;28;20433;-85
2022/11/21 13:23:39;;;;;;;;;;;3.50;99.90;;;;;;12589671;28;19928;-85
2022/11/21 13:30:00;;;;;;;;;;;3.40;99.90;;;;;;12588827;28;19932;-85
2022/11/21 13:36:06;;;;;;;;;;;3.10;99.90;;;;;;12574325;28;19924;-85
2022/11/21 13:48:47;;;;;;;;;;;2.90;99.90;;;;;;12561596;28;19928;-86
2022/11/21 13:54:53;;;;;;;;;;;2.90;99.90;;;;;;12580925;28;19924;-85
2022/11/21 14:01:28;;;;;;;;;;;2.70;99.90;;;;;;12586207;28;19933;-85
2022/11/21 14:07:31;;;;;;;;;;;2.50;99.90;;;;;;12520687;28;19967;-86
2022/11/21 14:13:37;;;;;;;;;;;2.50;99.90;;;;;;12585147;28;19931;-85
2022/11/21 14:19:40;;;;;;;;;;;2.30;99.90;;;;;;12577091;28;19925;-86
2022/11/21 14:25:44;;;;;;;;;;;2.20;99.90;;;;;;12583983;28;19929;-86
2022/11/21 14:31:48;;;;;;;;;;;2.20;99.90;;;;;;12571936;28;19929;-85
2022/11/21 14:37:50;;;;;;;;;;;2.20;99.90;;;;;;12572839;28;19925;-85
2022/11/21 14:43:57;;;;;;;;;;;2.10;99.90;;;;;;12580020;28;19932;-85
2022/11/21 14:50:02;;;;;;;;;;;2.00;99.90;;;;;;12561168;28;20380;-86
2022/11/21 14:56:18;;;;;;;;;;;1.90;99.90;;;;;;12554669;28;20019;-85
2022/11/21 15:02:21;;;;;;;;;;;1.90;99.90;;;;;;12566289;28;19933;-86
2022/11/21 15:08:23;;;;;;;;;;;1.80;99.90;;;;;;12555105;28;19936;-86
2022/11/21 15:14:48;;;;;;;;;;;1.80;99.90;;;;;;12586172;28;19967;-86
2022/11/21 15:21:11;;;;;;;;;;;1.80;99.90;;;;;;12589521;28;19951;-85
2022/11/21 15:27:25;;;;;;;;;;;1.90;99.90;;;;;;12556166;28;19959;-86
2022/11/21 15:33:27;;;;;;;;;;;1.80;99.90;;;;;;12559130;28;19928;-86
2022/11/21 15:39:28;;;;;;;;;;;1.80;99.90;;;;;;12565263;28;19928;-86
2022/11/21 15:45:30;;;;;;;;;;;1.80;99.90;;;;;;12561894;28;19950;-86
2022/11/21 15:51:42;;;;;;;;;;;1.80;99.90;;;;;;12563027;28;19925;-85
2022/11/21 15:58:04;;;;;;;;;;;1.70;99.90;;;;;;12587622;28;19924;-85
2022/11/21 16:04:07;;;;;;;;;;;1.50;99.90;;;;;;12579944;28;19925;-85
2022/11/21 16:10:09;;;;;;;;;;;1.50;99.90;;;;;;12580610;28;19925;-85
2022/11/21 16:16:24;;;;;;;;;;;1.40;99.90;;;;;;12588515;28;20046;-85
2022/11/21 16:22:25;;;;;;;;;;;1.20;99.90;;;;;;12577753;28;19929;-85
2022/11/21 16:28:27;;;;;;;;;;;1.10;99.90;;;;;;12573488;28;19940;-85
2022/11/21 16:34:29;;;;;;;;;;;1.00;99.90;;;;;;12590802;28;19929;-85
2022/11/21 16:40:30;;;;;;;;;;;0.90;99.90;;;;;;12579713;28;20303;-85
2022/11/21 16:46:32;;;;;;;;;;;0.80;99.90;;;;;;12575279;28;19940;-85
2022/11/21 16:52:37;;;;;;;;;;;0.70;99.90;;;;;;12599042;28;20273;-85
2022/11/21 16:58:39;;;;;;;;;;;0.70;99.90;;;;;;12595031;28;20303;-85
2022/11/21 17:04:41;;;;;;;;;;;0.60;99.90;;;;;;12602886;28;19987;-84
2022/11/21 17:10:42;;;;;;;;;;;0.60;99.90;;;;;;12580602;28;20874;-84
2022/11/21 17:16:44;;;;;;;;;;;0.50;99.90;;;;;;12572590;28;19928;-84
2022/11/21 17:22:46;;;;;;;;;;;0.40;99.90;;;;;;12590543;28;19928;-85
2022/11/21 17:28:54;;;;;;;;;;;0.30;99.90;;;;;;12586447;28;19928;-85
2022/11/21 17:34:55;;;;;;;;;;;0.30;99.90;;;;;;12578758;28;19928;-85
2022/11/21 17:41:01;;;;;;;;;;;0.30;99.90;;;;;;12583952;28;19939;-85
2022/11/21 17:47:02;;;;;;;;;;;0.20;99.90;;;;;;12601269;28;20295;-85
2022/11/21 17:53:04;;;;;;;;;;;0.20;99.90;;;;;;12576603;28;19925;-85
2022/11/21 17:59:06;;;;;;;;;;;0.10;99.90;;;;;;12579260;28;19931;-85
2022/11/21 18:05:07;;;;;;;;;;;0.10;99.90;;;;;;12595779;28;19929;-85
2022/11/21 18:11:10;;;;;;;;;;;0.50;99.90;;;;;;12578309;28;20403;-85
2022/11/21 18:17:12;;;;;;;;;;;0.80;99.90;;;;;;12597357;28;19925;-84
2022/11/21 18:23:13;;;;;;;;;;;0.90;99.90;;;;;;12630463;28;19988;-84
2022/11/21 18:29:15;;;;;;;;;;;0.80;99.90;;;;;;12625357;28;19988;-84
2022/11/21 18:35:37;;;;;;;;;;;0.80;99.90;;;;;;12612638;28;19928;-84
2022/11/21 18:41:38;;;;;;;;;;;1.00;99.90;;;;;;12606594;28;19925;-84
2022/11/21 18:47:40;;;;;;;;;;;1.10;99.90;;;;;;12574426;28;19929;-83
2022/11/21 18:53:42;;;;;;;;;;;1.20;99.90;;;;;;12572387;28;19925;-83
2022/11/21 18:59:44;;;;;;;;;;;1.20;99.90;;;;;;12579574;28;20274;-83
2022/11/21 19:05:45;;;;;;;;;;;1.30;99.90;;;;;;12569879;28;19929;-83
2022/11/21 19:11:47;;;;;;;;;;;1.30;99.90;;;;;;12584039;28;19928;-83
2022/11/21 19:17:49;;;;;;;;;;;1.40;99.90;;;;;;12586398;28;19925;-83
2022/11/21 19:23:51;;;;;;;;;;;1.20;99.90;;;;;;12585726;28;19924;-83
2022/11/21 19:29:54;;;;;;;;;;;1.20;99.90;;;;;;12568615;28;19928;-82
2022/11/21 19:36:00;;;;;;;;;;;1.30;99.90;;;;;;12580695;28;20021;-83
2022/11/21 19:42:02;;;;;;;;;;;1.60;99.90;;;;;;12582787;28;20312;-83
2022/11/21 19:48:03;;;;;;;;;;;1.90;99.90;;;;;;12571774;28;20516;-82
2022/11/21 19:54:06;;;;;;;;;;;2.20;99.90;;;;;;12567991;28;19932;-83
2022/11/21 20:00:08;;;;;;;;;;;2.30;99.90;;;;;;12593165;28;19952;-83
2022/11/21 20:06:15;;;;;;;;;;;2.30;99.90;;;;;;12556574;28;19929;-83
2022/11/21 20:12:17;;;;;;;;;;;2.30;99.90;;;;;;12577125;28;19925;-83
2022/11/21 20:18:18;;;;;;;;;;;2.30;99.90;;;;;;12564753;28;19928;-83
2022/11/21 20:24:20;;;;;;;;;;;2.40;99.90;;;;;;12570594;28;19928;-82
2022/11/21 20:30:23;;;;;;;;;;;2.40;99.90;;;;;;12561324;28;19981;-82
2022/11/21 20:36:26;;;;;;;;;;;2.50;99.90;;;;;;12579259;28;19924;-82
2022/11/21 20:42:28;;;;;;;;;;;2.50;99.90;;;;;;12581025;28;19928;-82
2022/11/21 20:48:30;;;;;;;;;;;2.50;99.90;;;;;;12557231;28;19951;-83
2022/11/21 20:54:32;;;;;;;;;;;2.50;99.90;;;;;;12578284;28;19993;-82
2022/11/21 21:00:33;;;;;;;;;;;2.60;99.90;;;;;;12580685;28;19974;-83
2022/11/21 21:06:36;;;;;;;;;;;2.60;99.90;;;;;;12560404;28;19973;-83
2022/11/21 21:12:38;;;;;;;;;;;2.70;99.90;;;;;;12584237;28;20007;-83
2022/11/21 21:18:44;;;;;;;;;;;2.80;99.90;;;;;;12600115;28;20410;-83
2022/11/21 21:24:52;;;;;;;;;;;2.80;99.90;;;;;;12555082;28;19925;-83
2022/11/21 21:30:54;;;;;;;;;;;2.80;99.90;;;;;;12572921;28;19929;-83
2022/11/21 21:36:56;;;;;;;;;;;2.80;99.90;;;;;;12577488;28;19977;-83
2022/11/21 21:42:57;;;;;;;;;;;2.80;99.90;;;;;;12573474;28;19932;-83
2022/11/21 21:48:59;;;;;;;;;;;2.90;99.90;;;;;;12561594;28;20728;-83
2022/11/21 21:55:01;;;;;;;;;;;3.00;99.90;;;;;;12576366;28;20340;-83
2022/11/21 22:01:07;;;;;;;;;;;3.10;99.90;;;;;;12569113;28;20399;-83
2022/11/21 22:07:09;;;;;;;;;;;3.00;99.90;;;;;;12574232;28;20042;-82
2022/11/21 22:13:11;;;;;;;;;;;2.90;99.90;;;;;;12587472;28;19932;-82
2022/11/21 22:19:12;;;;;;;;;;;3.00;99.90;;;;;;12595034;28;19928;-83
2022/11/21 22:25:14;;;;;;;;;;;3.00;99.90;;;;;;12585247;28;19925;-83
2022/11/21 22:31:16;;;;;;;;;;;3.10;99.90;;;;;;12576515;28;19924;-83
2022/11/21 22:37:18;;;;;;;;;;;3.10;99.90;;;;;;12576149;28;19986;-83
2022/11/21 22:43:19;;;;;;;;;;;3.10;99.90;;;;;;12582599;28;20015;-83
2022/11/21 22:49:21;;;;;;;;;;;3.10;99.90;;;;;;12547943;28;20387;-83
2022/11/21 22:55:23;;;;;;;;;;;3.00;99.90;;;;;;12555071;28;19924;-83
2022/11/21 23:01:24;;;;;;;;;;;3.00;99.90;;;;;;12587689;28;19929;-82
2022/11/21 23:07:27;;;;;;;;;;;2.90;99.90;;;;;;12567976;28;19928;-82
2022/11/21 23:13:29;;;;;;;;;;;2.80;99.90;;;;;;12591379;28;19939;-83
2022/11/21 23:19:31;;;;;;;;;;;2.80;99.90;;;;;;12585338;28;19928;-83
2022/11/21 23:25:32;;;;;;;;;;;2.80;99.90;;;;;;12588850;28;20380;-83
2022/11/21 23:31:34;;;;;;;;;;;2.80;99.90;;;;;;12580803;28;20388;-83
2022/11/21 23:37:36;;;;;;;;;;;2.70;99.90;;;;;;12583430;28;19981;-82
2022/11/21 23:43:37;;;;;;;;;;;2.70;99.90;;;;;;12583768;28;20297;-82
2022/11/21 23:49:39;;;;;;;;;;;2.60;99.90;;;;;;12581843;28;19929;-83
2022/11/21 23:55:45;;;;;;;;;;;2.40;99.90;;;;;;12585525;28;19928;-82
